createdAt,value
2017-06-30T00:01:05.684Z,95.70
2017-06-30T00:03:33.098Z,95.70
2017-06-30T00:06:01.467Z,95.70
2017-06-30T00:08:28.886Z,95.60
2017-06-30T00:10:56.311Z,95.50
2017-06-30T00:13:24.489Z,94.80
2017-06-30T00:15:51.972Z,94.80
2017-06-30T00:18:19.387Z,94.50
2017-06-30T00:20:47.562Z,94.20
2017-06-30T00:23:15.745Z,94.10
2017-06-30T00:25:43.157Z,94.10
2017-06-30T00:28:10.569Z,94.00
2017-06-30T00:30:37.975Z,94.10
2017-06-30T00:33:05.394Z,94.10
2017-06-30T00:35:32.815Z,94.20
2017-06-30T00:38:00.996Z,94.50
2017-06-30T00:40:28.415Z,94.50
2017-06-30T00:42:55.835Z,94.80
2017-06-30T00:45:23.246Z,94.90
2017-06-30T00:47:51.455Z,95.20
2017-06-30T00:50:18.871Z,95.20
2017-06-30T00:52:47.070Z,95.80
2017-06-30T00:55:14.495Z,95.50
2017-06-30T00:57:41.918Z,95.50
2017-06-30T01:00:09.334Z,95.60
2017-06-30T01:02:36.756Z,95.80
2017-06-30T01:05:04.947Z,95.80
2017-06-30T01:07:33.131Z,95.80
2017-06-30T01:10:00.894Z,95.80
2017-06-30T01:12:28.314Z,95.70
2017-06-30T01:14:55.731Z,95.90
2017-06-30T01:17:23.157Z,95.80
2017-06-30T01:19:51.342Z,95.80
2017-06-30T01:22:18.764Z,95.80
2017-06-30T01:24:46.182Z,95.90
2017-06-30T01:27:14.119Z,96.00
2017-06-30T01:29:41.542Z,96.00
2017-06-30T01:32:08.963Z,95.90
2017-06-30T01:34:36.383Z,95.80
2017-06-30T01:37:04.587Z,95.80
2017-06-30T01:39:31.995Z,95.80
2017-06-30T01:41:59.411Z,95.80
2017-06-30T01:44:26.834Z,95.80
2017-06-30T01:46:54.275Z,95.90
2017-06-30T01:49:21.766Z,95.90
2017-06-30T01:51:49.183Z,96.00
2017-06-30T01:54:17.362Z,96.20
2017-06-30T01:56:45.547Z,96.10
2017-06-30T01:59:12.971Z,96.10
2017-06-30T02:01:40.397Z,96.10
2017-06-30T02:04:07.889Z,96.10
2017-06-30T02:06:36.148Z,96.50
2017-06-30T02:09:03.731Z,96.10
2017-06-30T02:11:31.132Z,96.10
2017-06-30T02:13:58.547Z,96.10
2017-06-30T02:16:26.772Z,96.10
2017-06-30T02:18:54.251Z,96.10
2017-06-30T02:21:21.679Z,96.10
2017-06-30T02:23:49.098Z,96.00
2017-06-30T02:26:16.569Z,96.00
2017-06-30T02:28:44.774Z,96.10
2017-06-30T02:31:12.255Z,96.10
2017-06-30T02:33:39.683Z,96.20
2017-06-30T02:36:07.099Z,96.20
2017-06-30T02:38:34.565Z,96.20
2017-06-30T02:41:01.987Z,96.00
2017-06-30T02:43:29.400Z,96.00
2017-06-30T02:45:56.818Z,96.00
2017-06-30T02:48:24.255Z,96.00
2017-06-30T02:50:52.444Z,96.40
2017-06-30T02:53:20.623Z,96.20
2017-06-30T02:55:48.052Z,96.10
2017-06-30T02:58:15.471Z,96.10
2017-06-30T03:00:42.887Z,96.00
2017-06-30T03:03:10.302Z,95.90
2017-06-30T03:05:37.735Z,96.00
2017-06-30T03:08:05.150Z,95.90
2017-06-30T03:10:32.567Z,96.00
2017-06-30T03:12:59.980Z,96.00
2017-06-30T03:15:27.743Z,95.90
2017-06-30T03:17:55.163Z,95.90
2017-06-30T03:20:22.595Z,96.00
2017-06-30T03:22:50.011Z,95.90
2017-06-30T03:25:17.435Z,95.80
2017-06-30T03:27:45.634Z,96.30
2017-06-30T03:30:13.050Z,95.80
2017-06-30T03:32:40.462Z,95.90
2017-06-30T03:35:07.879Z,96.00
2017-06-30T03:37:36.063Z,96.00
2017-06-30T03:40:04.242Z,96.00
2017-06-30T03:42:31.664Z,96.00
2017-06-30T03:44:59.085Z,96.00
2017-06-30T03:47:26.502Z,96.10
2017-06-30T03:49:55.086Z,96.10
2017-06-30T03:52:23.278Z,96.00
2017-06-30T03:54:50.695Z,96.00
2017-06-30T03:57:18.115Z,96.00
2017-06-30T03:59:45.535Z,95.90
2017-06-30T04:02:12.951Z,96.00
2017-06-30T04:04:40.375Z,96.00
2017-06-30T04:07:07.791Z,96.00
2017-06-30T04:09:35.978Z,96.10
2017-06-30T04:12:04.035Z,96.00
2017-06-30T04:14:32.251Z,95.90
2017-06-30T04:16:59.668Z,95.90
2017-06-30T04:19:27.858Z,96.00
2017-06-30T04:21:55.275Z,96.00
2017-06-30T04:24:22.691Z,95.70
2017-06-30T04:26:50.106Z,95.60
2017-06-30T04:29:18.294Z,95.40
2017-06-30T04:31:45.714Z,95.40
2017-06-30T04:34:13.127Z,95.30
2017-06-30T04:36:40.555Z,95.40
2017-06-30T04:39:08.744Z,95.30
2017-06-30T04:41:36.154Z,95.30
2017-06-30T04:44:03.572Z,95.20
2017-06-30T04:46:30.995Z,95.40
2017-06-30T04:48:58.410Z,95.40
2017-06-30T04:51:25.827Z,95.30
2017-06-30T04:53:53.242Z,95.30
2017-06-30T04:56:21.432Z,95.10
2017-06-30T04:58:49.643Z,95.50
2017-06-30T05:01:17.070Z,95.50
2017-06-30T05:03:44.490Z,95.00
2017-06-30T05:06:11.903Z,95.00
2017-06-30T05:08:39.325Z,95.30
2017-06-30T05:11:07.515Z,95.50
2017-06-30T05:13:34.941Z,95.50
2017-06-30T05:16:02.351Z,95.50
2017-06-30T05:18:29.767Z,95.70
2017-06-30T05:20:57.965Z,95.90
2017-06-30T05:23:25.386Z,95.90
2017-06-30T05:25:53.571Z,96.20
2017-06-30T05:28:21.771Z,95.80
2017-06-30T05:30:49.171Z,95.80
2017-06-30T05:33:16.595Z,95.60
2017-06-30T05:35:48.415Z,95.00
2017-06-30T05:38:16.594Z,94.90
2017-06-30T05:40:44.013Z,94.90
2017-06-30T05:43:11.444Z,94.90
2017-06-30T05:45:38.851Z,94.90
2017-06-30T05:48:07.035Z,94.70
2017-06-30T05:50:34.451Z,94.70
2017-06-30T05:53:01.876Z,94.60
2017-06-30T05:55:29.863Z,94.60
2017-06-30T05:57:57.289Z,94.10
2017-06-30T06:00:24.699Z,94.20
2017-06-30T06:02:52.118Z,94.10
2017-06-30T06:05:20.203Z,94.00
2017-06-30T06:07:47.633Z,94.30
2017-06-30T06:10:15.054Z,94.30
2017-06-30T06:12:43.228Z,94.60
2017-06-30T06:15:11.411Z,94.60
2017-06-30T06:17:38.838Z,94.60
2017-06-30T06:20:06.258Z,94.80
2017-06-30T06:22:33.675Z,94.80
2017-06-30T06:25:01.862Z,95.10
2017-06-30T06:27:29.301Z,95.10
2017-06-30T06:29:57.478Z,94.90
2017-06-30T06:32:25.670Z,94.90
2017-06-30T06:34:53.087Z,94.90
2017-06-30T06:37:20.507Z,94.80
2017-06-30T06:39:47.937Z,94.80
2017-06-30T06:42:15.390Z,94.80
2017-06-30T06:44:42.819Z,94.70
2017-06-30T06:47:11.011Z,94.30
2017-06-30T06:49:39.188Z,94.30
2017-06-30T06:52:06.615Z,94.30
2017-06-30T06:54:34.033Z,94.20
2017-06-30T06:57:01.460Z,94.30
2017-06-30T06:59:28.883Z,94.20
2017-06-30T07:01:56.307Z,94.40
2017-06-30T07:04:23.727Z,93.90
2017-06-30T07:06:51.138Z,93.70
2017-06-30T07:09:18.791Z,93.40
2017-06-30T07:11:46.199Z,93.20
2017-06-30T07:14:13.635Z,93.00
2017-06-30T07:16:42.372Z,93.50
2017-06-30T07:19:09.787Z,93.50
2017-06-30T07:21:37.979Z,92.80
2017-06-30T07:24:05.398Z,92.80
2017-06-30T07:26:32.823Z,92.30
2017-06-30T07:29:00.259Z,92.00
2017-06-30T07:31:27.695Z,92.10
2017-06-30T07:33:55.119Z,92.00
2017-06-30T07:36:22.547Z,91.40
2017-06-30T07:38:49.967Z,91.50
2017-06-30T07:41:21.837Z,91.50
2017-06-30T07:43:49.340Z,90.80
2017-06-30T07:46:16.734Z,90.30
2017-06-30T07:48:44.238Z,90.90
2017-06-30T07:51:11.651Z,90.30
2017-06-30T07:53:39.083Z,90.30
2017-06-30T07:56:07.274Z,90.30
2017-06-30T07:58:34.706Z,90.30
2017-06-30T08:01:02.135Z,90.10
2017-06-30T08:03:29.583Z,90.10
2017-06-30T08:05:57.079Z,90.00
2017-06-30T08:08:24.556Z,90.00
2017-06-30T08:10:52.779Z,90.20
2017-06-30T08:13:20.188Z,89.80
2017-06-30T08:15:47.632Z,89.10
2017-06-30T08:18:15.805Z,88.80
2017-06-30T08:20:43.227Z,88.70
2017-06-30T08:23:10.630Z,88.90
2017-06-30T08:25:38.089Z,88.60
2017-06-30T08:28:05.470Z,88.30
2017-06-30T08:30:32.895Z,87.90
2017-06-30T08:33:00.336Z,87.20
2017-06-30T08:35:27.739Z,86.60
2017-06-30T08:37:55.154Z,86.60
2017-06-30T08:40:22.562Z,86.60
2017-06-30T08:42:49.998Z,86.20
2017-06-30T08:45:18.132Z,85.90
2017-06-30T08:47:46.317Z,85.30
2017-06-30T08:50:13.747Z,85.30
2017-06-30T08:52:41.163Z,85.40
2017-06-30T08:55:08.583Z,85.30
2017-06-30T08:57:35.999Z,84.10
2017-06-30T09:00:03.419Z,85.20
2017-06-30T09:02:30.840Z,84.50
2017-06-30T09:04:59.038Z,84.60
2017-06-30T09:07:26.472Z,84.60
2017-06-30T09:09:54.658Z,82.80
2017-06-30T09:12:22.079Z,82.80
2017-06-30T09:14:49.491Z,84.50
2017-06-30T09:17:16.942Z,83.70
2017-06-30T09:19:44.363Z,83.90
2017-06-30T09:22:12.547Z,81.70
2017-06-30T09:24:40.015Z,81.50
2017-06-30T09:27:07.435Z,82.20
2017-06-30T09:29:34.851Z,81.40
2017-06-30T09:32:02.272Z,81.40
2017-06-30T09:34:30.468Z,81.40
2017-06-30T09:36:57.876Z,81.30
2017-06-30T09:39:25.293Z,81.00
2017-06-30T09:41:52.706Z,80.80
2017-06-30T09:44:20.887Z,82.00
2017-06-30T09:46:48.322Z,81.80
2017-06-30T09:49:16.513Z,81.00
2017-06-30T09:51:44.683Z,80.20
2017-06-30T09:54:12.866Z,81.50
2017-06-30T09:56:40.287Z,81.50
2017-06-30T09:59:07.704Z,80.70
2017-06-30T10:01:35.128Z,80.80
2017-06-30T10:04:02.735Z,80.30
2017-06-30T10:06:30.157Z,79.80
2017-06-30T10:08:57.581Z,78.70
2017-06-30T10:11:24.993Z,79.20
2017-06-30T10:13:52.408Z,78.60
2017-06-30T10:16:20.603Z,78.10
2017-06-30T10:18:48.023Z,78.00
2017-06-30T10:21:15.443Z,77.80
2017-06-30T10:23:42.859Z,78.10
2017-06-30T10:26:10.311Z,78.10
2017-06-30T10:28:37.735Z,77.70
2017-06-30T10:31:05.148Z,77.90
2017-06-30T10:33:32.567Z,77.00
2017-06-30T10:36:00.755Z,76.40
2017-06-30T10:38:28.174Z,76.40
2017-06-30T10:40:55.600Z,76.00
2017-06-30T10:43:23.011Z,74.50
2017-06-30T10:45:51.203Z,73.00
2017-06-30T10:48:18.626Z,73.00
2017-06-30T10:50:46.058Z,72.30
2017-06-30T10:53:13.475Z,72.20
2017-06-30T10:55:40.898Z,72.10
2017-06-30T10:58:08.403Z,72.50
2017-06-30T11:00:35.791Z,71.60
2017-06-30T11:03:03.314Z,72.30
2017-06-30T11:05:30.739Z,72.60
2017-06-30T11:07:59.747Z,72.80
2017-06-30T11:10:27.169Z,72.80
2017-06-30T11:12:54.587Z,73.10
2017-06-30T11:15:22.031Z,73.70
2017-06-30T11:17:49.427Z,74.00
2017-06-30T11:20:16.853Z,73.50
2017-06-30T11:22:44.266Z,73.30
2017-06-30T11:25:11.687Z,74.10
2017-06-30T11:27:39.131Z,73.70
2017-06-30T11:30:06.554Z,73.80
2017-06-30T11:32:33.975Z,73.70
2017-06-30T11:35:02.156Z,73.30
2017-06-30T11:37:30.364Z,72.40
2017-06-30T11:39:57.780Z,72.30
2017-06-30T11:42:26.632Z,71.80
2017-06-30T11:44:54.047Z,71.70
2017-06-30T11:47:21.468Z,71.50
2017-06-30T11:49:48.894Z,71.70
2017-06-30T11:52:16.713Z,71.60
2017-06-30T11:54:44.898Z,72.30
2017-06-30T11:57:12.325Z,72.20
2017-06-30T11:59:39.736Z,71.70
2017-06-30T12:02:07.165Z,70.40
2017-06-30T12:04:34.593Z,69.50
2017-06-30T12:07:02.005Z,69.40
2017-06-30T12:09:29.434Z,68.80
2017-06-30T12:11:56.856Z,69.60
2017-06-30T12:14:24.275Z,68.90
2017-06-30T12:16:51.692Z,68.30
2017-06-30T12:19:19.112Z,68.00
2017-06-30T12:21:46.631Z,67.90
2017-06-30T12:24:14.052Z,67.00
2017-06-30T12:26:42.249Z,65.40
2017-06-30T12:29:09.672Z,65.40
2017-06-30T12:31:37.856Z,65.20
2017-06-30T12:34:06.049Z,64.50
2017-06-30T12:36:33.467Z,64.50
2017-06-30T12:39:00.887Z,64.00
2017-06-30T12:41:28.313Z,64.70
2017-06-30T12:43:55.754Z,64.60
2017-06-30T12:46:23.171Z,63.50
2017-06-30T12:48:50.593Z,63.40
2017-06-30T12:51:19.315Z,64.90
2017-06-30T12:53:46.736Z,64.80
2017-06-30T12:56:14.160Z,65.70
2017-06-30T12:58:41.583Z,66.00
2017-06-30T13:01:09.007Z,65.70
2017-06-30T13:03:36.420Z,63.20
2017-06-30T13:06:04.645Z,60.10
2017-06-30T13:08:32.047Z,59.80
2017-06-30T13:11:00.267Z,57.60
2017-06-30T13:13:27.729Z,57.60
2017-06-30T13:15:55.143Z,57.10
2017-06-30T13:18:23.326Z,57.10
2017-06-30T13:20:50.808Z,57.10
2017-06-30T13:23:18.219Z,57.60
2017-06-30T13:25:46.411Z,60.60
2017-06-30T13:28:15.035Z,60.30
2017-06-30T13:30:42.450Z,60.10
2017-06-30T13:33:10.634Z,62.30
2017-06-30T13:35:38.144Z,62.20
2017-06-30T13:38:05.549Z,63.30
2017-06-30T13:40:32.990Z,63.90
2017-06-30T13:43:01.191Z,64.50
2017-06-30T13:45:28.617Z,64.50
2017-06-30T13:47:56.799Z,62.20
2017-06-30T13:50:24.214Z,62.20
2017-06-30T13:52:51.646Z,62.00
2017-06-30T13:55:19.062Z,61.90
2017-06-30T13:57:47.294Z,60.70
2017-06-30T14:00:14.695Z,60.70
2017-06-30T14:02:42.126Z,60.40
2017-06-30T14:05:09.657Z,60.00
2017-06-30T14:07:37.074Z,59.70
2017-06-30T14:10:04.491Z,60.30
2017-06-30T14:12:32.016Z,60.80
2017-06-30T14:14:59.420Z,60.40
2017-06-30T14:17:28.267Z,60.60
2017-06-30T14:19:56.331Z,60.60
2017-06-30T14:22:23.762Z,60.00
2017-06-30T14:24:51.246Z,59.70
2017-06-30T14:27:18.654Z,60.00
2017-06-30T14:29:46.855Z,58.60
2017-06-30T14:32:14.271Z,58.50
2017-06-30T14:34:41.688Z,58.50
2017-06-30T14:37:09.107Z,58.30
2017-06-30T14:39:37.283Z,58.10
2017-06-30T14:42:04.702Z,58.10
2017-06-30T14:44:32.115Z,58.60
2017-06-30T14:46:59.534Z,58.70
2017-06-30T14:49:27.707Z,59.00
2017-06-30T14:51:55.147Z,58.70
2017-06-30T14:54:22.559Z,58.40
2017-06-30T14:56:49.995Z,58.10
2017-06-30T14:59:17.408Z,58.40
2017-06-30T15:01:44.815Z,58.30
2017-06-30T15:04:12.225Z,58.10
2017-06-30T15:06:39.639Z,56.90
2017-06-30T15:09:07.058Z,56.90
2017-06-30T15:11:35.231Z,58.00
2017-06-30T15:14:02.728Z,58.00
2017-06-30T15:16:30.483Z,58.30
2017-06-30T15:18:57.876Z,57.80
2017-06-30T15:21:25.283Z,58.10
2017-06-30T15:23:52.691Z,57.90
2017-06-30T15:26:20.103Z,58.30
2017-06-30T15:28:47.513Z,58.70
2017-06-30T15:31:14.931Z,59.20
2017-06-30T15:33:42.342Z,59.20
2017-06-30T15:36:11.251Z,61.30
2017-06-30T15:38:38.667Z,61.30
2017-06-30T15:41:06.087Z,62.40
2017-06-30T15:43:33.510Z,62.70
2017-06-30T15:46:00.929Z,63.60
2017-06-30T15:48:28.339Z,64.70
2017-06-30T15:50:55.750Z,63.50
2017-06-30T15:53:23.974Z,63.50
2017-06-30T15:55:51.387Z,63.40
2017-06-30T15:58:19.555Z,62.80
2017-06-30T16:00:47.744Z,62.30
2017-06-30T16:03:15.932Z,60.50
2017-06-30T16:05:43.335Z,60.40
2017-06-30T16:08:10.760Z,60.00
2017-06-30T16:10:38.174Z,59.90
2017-06-30T16:13:06.359Z,60.10
2017-06-30T16:15:34.523Z,60.20
2017-06-30T16:18:02.694Z,59.70
2017-06-30T16:20:30.871Z,60.30
2017-06-30T16:22:58.296Z,60.10
2017-06-30T16:25:25.707Z,60.40
2017-06-30T16:27:53.115Z,60.70
2017-06-30T16:30:20.538Z,60.70
2017-06-30T16:32:47.949Z,61.00
2017-06-30T16:35:16.127Z,61.50
2017-06-30T16:37:44.307Z,62.10
2017-06-30T16:40:12.482Z,62.20
2017-06-30T16:42:39.923Z,62.20
2017-06-30T16:45:08.095Z,62.50
2017-06-30T16:47:36.278Z,62.00
2017-06-30T16:50:04.459Z,62.20
2017-06-30T16:52:31.879Z,62.20
2017-06-30T16:54:59.572Z,61.60
2017-06-30T16:57:26.955Z,61.30
2017-06-30T16:59:55.011Z,61.00
2017-06-30T17:04:59.839Z,61.00
2017-06-30T17:07:28.030Z,62.20
2017-06-30T17:09:55.445Z,62.20
2017-06-30T17:12:22.855Z,62.30
2017-06-30T17:14:50.275Z,62.10
2017-06-30T17:17:18.451Z,62.30
2017-06-30T17:19:46.628Z,62.80
2017-06-30T17:22:14.806Z,63.40
2017-06-30T17:24:42.982Z,64.80
2017-06-30T17:27:10.402Z,64.80
2017-06-30T17:29:37.811Z,68.50
2017-06-30T17:32:05.229Z,70.40
2017-06-30T17:34:33.419Z,72.00
2017-06-30T17:37:00.839Z,72.00
2017-06-30T17:39:28.247Z,72.90
2017-06-30T17:41:55.682Z,73.80
2017-06-30T17:44:23.856Z,76.40
2017-06-30T17:46:52.038Z,77.00
2017-06-30T17:49:19.459Z,77.00
2017-06-30T17:51:46.892Z,78.20
2017-06-30T17:54:14.299Z,79.10
2017-06-30T17:56:41.727Z,79.40
2017-06-30T17:59:09.148Z,80.00
2017-06-30T18:01:36.574Z,80.50
2017-06-30T18:04:03.995Z,80.60
2017-06-30T18:06:31.424Z,80.40
2017-06-30T18:08:58.863Z,80.90
2017-06-30T18:11:26.287Z,81.30
2017-06-30T18:13:54.476Z,81.70
2017-06-30T18:16:21.900Z,81.70
2017-06-30T18:21:22.851Z,81.70
2017-06-30T18:23:50.283Z,82.60
2017-06-30T18:26:17.699Z,82.90
2017-06-30T18:28:45.125Z,83.30
2017-06-30T18:31:12.632Z,83.60
2017-06-30T18:33:40.045Z,84.40
2017-06-30T18:36:08.237Z,86.30
2017-06-30T18:38:35.654Z,86.30
2017-06-30T18:41:03.070Z,86.30
2017-06-30T18:43:30.506Z,86.60
2017-06-30T18:45:57.923Z,86.70
2017-06-30T18:48:25.342Z,86.70
2017-06-30T18:50:52.792Z,87.50
2017-06-30T18:53:20.216Z,88.50
2017-06-30T18:55:48.423Z,90.80
2017-06-30T18:58:15.847Z,90.80
2017-06-30T19:00:44.037Z,90.60
2017-06-30T19:03:11.455Z,90.60
2017-06-30T19:05:38.874Z,90.60
2017-06-30T19:08:06.307Z,91.30
2017-06-30T19:10:33.724Z,91.30
2017-06-30T19:13:01.191Z,91.20
2017-06-30T19:15:28.574Z,91.50
2017-06-30T19:17:55.995Z,91.70
2017-06-30T19:20:23.411Z,91.60
2017-06-30T19:22:50.844Z,91.90
2017-06-30T19:25:18.539Z,92.20
2017-06-30T19:27:45.972Z,92.00
2017-06-30T19:30:13.398Z,91.80
2017-06-30T19:32:41.593Z,92.00
2017-06-30T19:35:08.999Z,91.90
2017-06-30T19:37:36.415Z,92.00
2017-06-30T19:40:03.840Z,91.90
2017-06-30T19:42:32.037Z,92.00
2017-06-30T19:44:59.484Z,92.00
2017-06-30T19:47:26.905Z,92.40
2017-06-30T19:49:54.312Z,92.20
2017-06-30T19:52:21.731Z,92.50
2017-06-30T19:54:49.952Z,92.60
2017-06-30T19:57:17.355Z,92.50
2017-06-30T19:59:45.573Z,92.30
2017-06-30T20:02:12.971Z,92.20
2017-06-30T20:04:40.439Z,92.40
2017-06-30T20:07:07.848Z,92.40
2017-06-30T20:09:35.263Z,92.40
2017-06-30T20:12:03.510Z,92.40
2017-06-30T20:14:30.931Z,92.40
2017-06-30T20:16:58.355Z,92.30
2017-06-30T20:19:25.795Z,92.40
2017-06-30T20:21:53.297Z,92.60
2017-06-30T20:24:20.728Z,91.90
2017-06-30T20:26:48.247Z,91.70
2017-06-30T20:29:15.665Z,91.50
2017-06-30T20:31:43.083Z,91.10
2017-06-30T20:34:11.271Z,90.70
2017-06-30T20:36:38.691Z,90.70
2017-06-30T20:39:06.122Z,90.40
2017-06-30T20:41:33.539Z,90.00
2017-06-30T20:44:00.979Z,90.20
2017-06-30T20:46:29.170Z,90.00
2017-06-30T20:48:56.591Z,90.00
2017-06-30T20:51:24.015Z,90.10
2017-06-30T20:53:51.467Z,89.90
2017-06-30T20:56:18.867Z,89.70
2017-06-30T20:58:47.056Z,90.30
2017-06-30T21:01:15.250Z,90.00
2017-06-30T21:03:42.669Z,90.00
2017-06-30T21:06:10.846Z,90.00
2017-06-30T21:08:38.258Z,90.00
2017-06-30T21:11:06.628Z,90.10
2017-06-30T21:13:34.044Z,90.20
2017-06-30T21:16:02.223Z,90.80
2017-06-30T21:18:30.495Z,91.10
2017-06-30T21:20:58.674Z,91.40
2017-06-30T21:23:26.095Z,91.40
2017-06-30T21:25:53.645Z,91.60
2017-06-30T21:28:21.075Z,91.60
2017-06-30T21:30:48.493Z,91.80
2017-06-30T21:33:16.666Z,92.40
2017-06-30T21:35:44.128Z,92.40
2017-06-30T21:38:12.355Z,92.50
2017-06-30T21:40:39.814Z,92.50
2017-06-30T21:43:07.239Z,92.80
2017-06-30T21:45:34.671Z,93.10
2017-06-30T21:48:02.883Z,92.80
2017-06-30T21:50:30.306Z,92.80
2017-06-30T21:52:57.727Z,92.60
2017-06-30T21:55:25.144Z,92.50
2017-06-30T21:57:52.559Z,92.90
2017-06-30T22:00:19.976Z,93.10
2017-06-30T22:02:47.393Z,92.90
2017-06-30T22:05:14.836Z,93.00
2017-06-30T22:07:42.249Z,92.90
2017-06-30T22:10:09.671Z,92.80
2017-06-30T22:12:37.095Z,92.70
2017-06-30T22:15:05.283Z,92.80
2017-06-30T22:17:32.687Z,92.80
2017-06-30T22:20:00.115Z,93.10
2017-06-30T22:22:27.523Z,93.10
2017-06-30T22:24:55.752Z,92.90
2017-06-30T22:27:23.183Z,93.20
2017-06-30T22:29:50.601Z,93.20
2017-06-30T22:32:18.015Z,93.10
2017-06-30T22:34:45.439Z,93.00
2017-06-30T22:37:13.624Z,93.30
2017-06-30T22:39:41.102Z,93.30
2017-06-30T22:42:08.519Z,93.10
2017-06-30T22:44:36.711Z,93.30
2017-06-30T22:47:04.119Z,93.30
2017-06-30T22:49:31.534Z,93.00
2017-06-30T22:51:58.955Z,93.00
2017-06-30T22:54:27.137Z,93.20
2017-06-30T22:56:55.323Z,93.00
2017-06-30T22:59:22.735Z,93.00
2017-06-30T23:01:50.151Z,93.00
2017-06-30T23:04:17.567Z,92.90
2017-06-30T23:06:45.987Z,92.70
2017-06-30T23:09:13.403Z,92.70
2017-06-30T23:11:41.602Z,92.90
2017-06-30T23:14:09.019Z,92.60
2017-06-30T23:16:36.447Z,92.60
2017-06-30T23:19:03.871Z,92.60
2017-06-30T23:21:31.291Z,92.70
2017-06-30T23:23:58.718Z,92.60
2017-06-30T23:26:26.127Z,92.60
2017-06-30T23:28:53.551Z,92.60
2017-06-30T23:31:20.971Z,92.50
2017-06-30T23:33:48.378Z,92.50
2017-06-30T23:36:16.579Z,92.50
2017-06-30T23:38:43.996Z,92.50
2017-06-30T23:41:11.424Z,92.50
2017-06-30T23:43:38.851Z,92.60
2017-06-30T23:46:06.270Z,92.60
2017-06-30T23:48:34.462Z,92.70
2017-06-30T23:51:01.884Z,92.70
2017-06-30T23:53:29.302Z,92.60
2017-06-30T23:55:56.719Z,92.70
2017-06-30T23:58:24.143Z,92.80
